sensor_id;sensor_type;location;lat;lon;timestamp;P1;durP1;ratioP1;P2;durP2;ratioP2
71288;SDS011;59068;52.502;9.860;2023-08-01T00:00:02;1.17;;;0.70;;
71288;SDS011;59068;52.502;9.860;2023-08-01T00:02:30;0.57;;;0.57;;
71288;SDS011;59068;52.502;9.860;2023-08-01T00:04:57;0.50;;;0.50;;
71288;SDS011;59068;52.502;9.860;2023-08-01T00:07:24;0.80;;;0.60;;
71288;SDS011;59068;52.502;9.860;2023-08-01T00:09:50;0.90;;;0.50;;
71288;SDS011;59068;52.502;9.860;2023-08-01T00:12:18;0.80;;;0.80;;
71288;SDS011;59068;52.502;9.860;2023-08-01T00:14:45;0.97;;;0.80;;
71288;SDS011;59068;52.502;9.860;2023-08-01T00:17:11;0.77;;;0.70;;
71288;SDS011;59068;52.502;9.860;2023-08-01T00:19:38;0.67;;;0.63;;
71288;SDS011;59068;52.502;9.860;2023-08-01T00:22:05;0.60;;;0.60;;
71288;SDS011;59068;52.502;9.860;2023-08-01T00:24:31;0.53;;;0.50;;
71288;SDS011;59068;52.502;9.860;2023-08-01T00:26:58;0.70;;;0.70;;
71288;SDS011;59068;52.502;9.860;2023-08-01T00:29:26;1.60;;;0.50;;
71288;SDS011;59068;52.502;9.860;2023-08-01T00:31:52;0.63;;;0.63;;
71288;SDS011;59068;52.502;9.860;2023-08-01T00:34:19;1.00;;;0.90;;
71288;SDS011;59068;52.502;9.860;2023-08-01T00:36:45;1.17;;;0.67;;
71288;SDS011;59068;52.502;9.860;2023-08-01T00:39:14;0.70;;;0.70;;
71288;SDS011;59068;52.502;9.860;2023-08-01T00:41:40;2.40;;;0.90;;
71288;SDS011;59068;52.502;9.860;2023-08-01T00:44:07;0.57;;;0.57;;
71288;SDS011;59068;52.502;9.860;2023-08-01T00:46:35;0.93;;;0.63;;
71288;SDS011;59068;52.502;9.860;2023-08-01T00:49:02;0.90;;;0.80;;
71288;SDS011;59068;52.502;9.860;2023-08-01T00:51:28;1.63;;;0.87;;
71288;SDS011;59068;52.502;9.860;2023-08-01T00:53:55;0.40;;;0.40;;
71288;SDS011;59068;52.502;9.860;2023-08-01T00:56:23;0.50;;;0.50;;
71288;SDS011;59068;52.502;9.860;2023-08-01T00:58:49;0.60;;;0.50;;
71288;SDS011;59068;52.502;9.860;2023-08-01T01:01:16;0.93;;;0.40;;
71288;SDS011;59068;52.502;9.860;2023-08-01T01:03:44;0.70;;;0.50;;
71288;SDS011;59068;52.502;9.860;2023-08-01T01:06:11;0.93;;;0.60;;
71288;SDS011;59068;52.502;9.860;2023-08-01T01:08:42;0.70;;;0.63;;
71288;SDS011;59068;52.502;9.860;2023-08-01T01:11:08;0.57;;;0.57;;
71288;SDS011;59068;52.502;9.860;2023-08-01T01:13:35;0.87;;;0.80;;
71288;SDS011;59068;52.502;9.860;2023-08-01T01:16:01;1.20;;;0.70;;
71288;SDS011;59068;52.502;9.860;2023-08-01T01:18:28;0.70;;;0.70;;
71288;SDS011;59068;52.502;9.860;2023-08-01T01:20:56;1.27;;;0.73;;
71288;SDS011;59068;52.502;9.860;2023-08-01T01:23:22;1.37;;;0.97;;
71288;SDS011;59068;52.502;9.860;2023-08-01T01:25:51;0.87;;;0.87;;
71288;SDS011;59068;52.502;9.860;2023-08-01T01:28:18;1.90;;;1.10;;
71288;SDS011;59068;52.502;9.860;2023-08-01T01:30:45;1.10;;;1.00;;
71288;SDS011;59068;52.502;9.860;2023-08-01T01:33:12;1.10;;;1.10;;
71288;SDS011;59068;52.502;9.860;2023-08-01T01:35:39;1.00;;;0.93;;
71288;SDS011;59068;52.502;9.860;2023-08-01T01:38:08;1.17;;;1.07;;
71288;SDS011;59068;52.502;9.860;2023-08-01T01:40:35;1.13;;;1.03;;
71288;SDS011;59068;52.502;9.860;2023-08-01T01:43:01;1.30;;;1.30;;
71288;SDS011;59068;52.502;9.860;2023-08-01T01:45:28;1.73;;;1.50;;
71288;SDS011;59068;52.502;9.860;2023-08-01T01:47:54;1.50;;;1.40;;
71288;SDS011;59068;52.502;9.860;2023-08-01T01:50:21;1.97;;;1.20;;
71288;SDS011;59068;52.502;9.860;2023-08-01T01:52:47;1.50;;;1.40;;
71288;SDS011;59068;52.502;9.860;2023-08-01T01:55:16;2.33;;;1.57;;
71288;SDS011;59068;52.502;9.860;2023-08-01T01:57:42;1.40;;;1.30;;
71288;SDS011;59068;52.502;9.860;2023-08-01T02:00:09;1.27;;;1.20;;
71288;SDS011;59068;52.502;9.860;2023-08-01T02:02:37;1.80;;;1.60;;
71288;SDS011;59068;52.502;9.860;2023-08-01T02:05:04;1.57;;;1.43;;
71288;SDS011;59068;52.502;9.860;2023-08-01T02:07:30;1.40;;;1.30;;
71288;SDS011;59068;52.502;9.860;2023-08-01T02:09:58;1.40;;;1.40;;
71288;SDS011;59068;52.502;9.860;2023-08-01T02:12:26;1.50;;;1.40;;
71288;SDS011;59068;52.502;9.860;2023-08-01T02:14:56;1.47;;;1.37;;
71288;SDS011;59068;52.502;9.860;2023-08-01T02:17:23;1.77;;;1.43;;
71288;SDS011;59068;52.502;9.860;2023-08-01T02:19:49;1.57;;;1.37;;
71288;SDS011;59068;52.502;9.860;2023-08-01T02:22:16;1.80;;;1.40;;
71288;SDS011;59068;52.502;9.860;2023-08-01T02:24:43;3.03;;;1.40;;
71288;SDS011;59068;52.502;9.860;2023-08-01T02:27:09;1.00;;;1.00;;
71288;SDS011;59068;52.502;9.860;2023-08-01T02:29:37;1.30;;;1.20;;
71288;SDS011;59068;52.502;9.860;2023-08-01T02:32:04;1.53;;;1.20;;
71288;SDS011;59068;52.502;9.860;2023-08-01T02:34:31;1.30;;;1.20;;
71288;SDS011;59068;52.502;9.860;2023-08-01T02:36:57;1.17;;;1.03;;
71288;SDS011;59068;52.502;9.860;2023-08-01T02:39:25;1.20;;;1.10;;
71288;SDS011;59068;52.502;9.860;2023-08-01T02:41:51;1.33;;;1.20;;
71288;SDS011;59068;52.502;9.860;2023-08-01T02:44:18;1.60;;;0.80;;
71288;SDS011;59068;52.502;9.860;2023-08-01T02:46:46;1.53;;;1.07;;
71288;SDS011;59068;52.502;9.860;2023-08-01T02:49:12;0.97;;;0.97;;
71288;SDS011;59068;52.502;9.860;2023-08-01T02:51:39;0.80;;;0.80;;
71288;SDS011;59068;52.502;9.860;2023-08-01T02:54:06;1.20;;;1.13;;
71288;SDS011;59068;52.502;9.860;2023-08-01T02:56:32;0.83;;;0.83;;
71288;SDS011;59068;52.502;9.860;2023-08-01T02:58:59;1.13;;;0.80;;
71288;SDS011;59068;52.502;9.860;2023-08-01T03:01:25;1.20;;;0.97;;
71288;SDS011;59068;52.502;9.860;2023-08-01T03:03:53;0.63;;;0.63;;
71288;SDS011;59068;52.502;9.860;2023-08-01T03:06:20;1.03;;;0.77;;
71288;SDS011;59068;52.502;9.860;2023-08-01T03:08:46;0.87;;;0.87;;
71288;SDS011;59068;52.502;9.860;2023-08-01T03:11:13;0.80;;;0.80;;
71288;SDS011;59068;52.502;9.860;2023-08-01T03:13:39;0.87;;;0.80;;
71288;SDS011;59068;52.502;9.860;2023-08-01T03:16:06;0.60;;;0.60;;
71288;SDS011;59068;52.502;9.860;2023-08-01T03:18:35;1.70;;;1.03;;
71288;SDS011;59068;52.502;9.860;2023-08-01T03:21:03;1.73;;;0.53;;
71288;SDS011;59068;52.502;9.860;2023-08-01T03:23:29;0.83;;;0.67;;
71288;SDS011;59068;52.502;9.860;2023-08-01T03:25:56;0.70;;;0.70;;
71288;SDS011;59068;52.502;9.860;2023-08-01T03:28:25;0.67;;;0.67;;
71288;SDS011;59068;52.502;9.860;2023-08-01T03:30:52;0.97;;;0.70;;
71288;SDS011;59068;52.502;9.860;2023-08-01T03:33:19;1.57;;;0.90;;
71288;SDS011;59068;52.502;9.860;2023-08-01T03:35:45;0.90;;;0.90;;
71288;SDS011;59068;52.502;9.860;2023-08-01T03:38:13;1.10;;;1.10;;
71288;SDS011;59068;52.502;9.860;2023-08-01T03:40:40;0.70;;;0.70;;
71288;SDS011;59068;52.502;9.860;2023-08-01T03:43:06;1.80;;;1.07;;
71288;SDS011;59068;52.502;9.860;2023-08-01T03:45:35;0.80;;;0.80;;
71288;SDS011;59068;52.502;9.860;2023-08-01T03:48:01;0.70;;;0.70;;
71288;SDS011;59068;52.502;9.860;2023-08-01T03:50:28;0.70;;;0.70;;
71288;SDS011;59068;52.502;9.860;2023-08-01T03:52:54;0.70;;;0.70;;
71288;SDS011;59068;52.502;9.860;2023-08-01T03:55:22;0.80;;;0.80;;
71288;SDS011;59068;52.502;9.860;2023-08-01T03:57:49;0.93;;;0.80;;
71288;SDS011;59068;52.502;9.860;2023-08-01T04:00:15;0.90;;;0.90;;
71288;SDS011;59068;52.502;9.860;2023-08-01T04:02:43;0.97;;;0.70;;
71288;SDS011;59068;52.502;9.860;2023-08-01T04:05:10;0.70;;;0.70;;
71288;SDS011;59068;52.502;9.860;2023-08-01T04:07:37;0.80;;;0.80;;
71288;SDS011;59068;52.502;9.860;2023-08-01T04:10:04;0.80;;;0.80;;
71288;SDS011;59068;52.502;9.860;2023-08-01T04:12:33;0.70;;;0.70;;
71288;SDS011;59068;52.502;9.860;2023-08-01T04:15:00;0.50;;;0.50;;
71288;SDS011;59068;52.502;9.860;2023-08-01T04:17:27;2.20;;;0.90;;
71288;SDS011;59068;52.502;9.860;2023-08-01T04:19:54;0.73;;;0.63;;
71288;SDS011;59068;52.502;9.860;2023-08-01T04:22:21;2.60;;;0.90;;
71288;SDS011;59068;52.502;9.860;2023-08-01T04:24:47;1.00;;;0.80;;
71288;SDS011;59068;52.502;9.860;2023-08-01T04:27:14;1.27;;;0.93;;
71288;SDS011;59068;52.502;9.860;2023-08-01T04:29:42;0.80;;;0.80;;
71288;SDS011;59068;52.502;9.860;2023-08-01T04:32:08;1.07;;;0.60;;
71288;SDS011;59068;52.502;9.860;2023-08-01T04:34:38;0.77;;;0.70;;
71288;SDS011;59068;52.502;9.860;2023-08-01T04:37:04;2.77;;;1.00;;
71288;SDS011;59068;52.502;9.860;2023-08-01T04:39:31;0.90;;;0.90;;
71288;SDS011;59068;52.502;9.860;2023-08-01T04:41:57;1.37;;;1.00;;
71288;SDS011;59068;52.502;9.860;2023-08-01T04:44:24;1.10;;;0.80;;
71288;SDS011;59068;52.502;9.860;2023-08-01T04:46:52;1.80;;;1.30;;
71288;SDS011;59068;52.502;9.860;2023-08-01T04:49:19;1.60;;;1.23;;
71288;SDS011;59068;52.502;9.860;2023-08-01T04:51:45;2.43;;;1.20;;
71288;SDS011;59068;52.502;9.860;2023-08-01T04:54:12;1.50;;;1.40;;
71288;SDS011;59068;52.502;9.860;2023-08-01T04:56:38;1.43;;;1.33;;
71288;SDS011;59068;52.502;9.860;2023-08-01T04:59:05;1.37;;;1.00;;
71288;SDS011;59068;52.502;9.860;2023-08-01T05:01:31;1.20;;;1.10;;
71288;SDS011;59068;52.502;9.860;2023-08-01T05:03:59;1.20;;;1.10;;
71288;SDS011;59068;52.502;9.860;2023-08-01T05:06:26;1.43;;;0.80;;
71288;SDS011;59068;52.502;9.860;2023-08-01T05:08:53;1.67;;;1.47;;
71288;SDS011;59068;52.502;9.860;2023-08-01T05:11:20;1.60;;;1.10;;
71288;SDS011;59068;52.502;9.860;2023-08-01T05:13:47;1.30;;;1.20;;
71288;SDS011;59068;52.502;9.860;2023-08-01T05:16:14;1.57;;;1.23;;
71288;SDS011;59068;52.502;9.860;2023-08-01T05:18:41;1.60;;;1.50;;
71288;SDS011;59068;52.502;9.860;2023-08-01T05:21:09;1.97;;;1.20;;
71288;SDS011;59068;52.502;9.860;2023-08-01T05:23:35;1.40;;;1.30;;
71288;SDS011;59068;52.502;9.860;2023-08-01T05:26:02;1.27;;;1.00;;
71288;SDS011;59068;52.502;9.860;2023-08-01T05:28:29;2.77;;;1.00;;
71288;SDS011;59068;52.502;9.860;2023-08-01T05:30:55;2.13;;;1.30;;
71288;SDS011;59068;52.502;9.860;2023-08-01T05:33:22;1.33;;;1.20;;
71288;SDS011;59068;52.502;9.860;2023-08-01T05:35:48;1.37;;;1.27;;
71288;SDS011;59068;52.502;9.860;2023-08-01T05:38:16;2.00;;;1.40;;
71288;SDS011;59068;52.502;9.860;2023-08-01T05:40:43;1.43;;;1.17;;
71288;SDS011;59068;52.502;9.860;2023-08-01T05:43:09;2.47;;;0.97;;
71288;SDS011;59068;52.502;9.860;2023-08-01T05:45:36;1.87;;;1.33;;
71288;SDS011;59068;52.502;9.860;2023-08-01T05:48:03;1.80;;;1.17;;
71288;SDS011;59068;52.502;9.860;2023-08-01T05:50:29;1.90;;;1.17;;
71288;SDS011;59068;52.502;9.860;2023-08-01T05:52:56;1.17;;;1.10;;
71288;SDS011;59068;52.502;9.860;2023-08-01T05:55:24;1.03;;;1.00;;
71288;SDS011;59068;52.502;9.860;2023-08-01T05:57:50;1.20;;;1.10;;
71288;SDS011;59068;52.502;9.860;2023-08-01T06:00:17;1.40;;;1.30;;
71288;SDS011;59068;52.502;9.860;2023-08-01T06:02:45;3.23;;;1.50;;
71288;SDS011;59068;52.502;9.860;2023-08-01T06:05:12;2.20;;;1.70;;
71288;SDS011;59068;52.502;9.860;2023-08-01T06:07:38;2.10;;;1.47;;
71288;SDS011;59068;52.502;9.860;2023-08-01T06:10:05;2.23;;;2.03;;
71288;SDS011;59068;52.502;9.860;2023-08-01T06:12:34;2.57;;;1.90;;
71288;SDS011;59068;52.502;9.860;2023-08-01T06:15:01;2.80;;;2.37;;
71288;SDS011;59068;52.502;9.860;2023-08-01T06:17:27;2.60;;;2.40;;
71288;SDS011;59068;52.502;9.860;2023-08-01T06:19:54;3.40;;;3.10;;
71288;SDS011;59068;52.502;9.860;2023-08-01T06:22:21;3.73;;;3.33;;
71288;SDS011;59068;52.502;9.860;2023-08-01T06:24:47;3.53;;;3.00;;
71288;SDS011;59068;52.502;9.860;2023-08-01T06:27:14;4.27;;;3.03;;
71288;SDS011;59068;52.502;9.860;2023-08-01T06:29:42;4.13;;;3.40;;
71288;SDS011;59068;52.502;9.860;2023-08-01T06:32:08;3.33;;;3.10;;
71288;SDS011;59068;52.502;9.860;2023-08-01T06:34:35;3.30;;;3.00;;
71288;SDS011;59068;52.502;9.860;2023-08-01T06:37:02;3.37;;;3.07;;
71288;SDS011;59068;52.502;9.860;2023-08-01T06:39:29;3.27;;;3.07;;
71288;SDS011;59068;52.502;9.860;2023-08-01T06:41:55;3.53;;;2.90;;
71288;SDS011;59068;52.502;9.860;2023-08-01T06:44:22;3.70;;;3.40;;
71288;SDS011;59068;52.502;9.860;2023-08-01T06:46:50;3.50;;;2.90;;
71288;SDS011;59068;52.502;9.860;2023-08-01T06:49:16;3.80;;;3.50;;
71288;SDS011;59068;52.502;9.860;2023-08-01T06:51:43;4.30;;;3.63;;
71288;SDS011;59068;52.502;9.860;2023-08-01T06:54:09;5.07;;;3.67;;
71288;SDS011;59068;52.502;9.860;2023-08-01T06:56:36;4.10;;;3.60;;
71288;SDS011;59068;52.502;9.860;2023-08-01T06:59:02;4.93;;;4.13;;
71288;SDS011;59068;52.502;9.860;2023-08-01T07:01:29;4.50;;;4.10;;
71288;SDS011;59068;52.502;9.860;2023-08-01T07:03:59;4.30;;;3.90;;
71288;SDS011;59068;52.502;9.860;2023-08-01T07:06:26;5.40;;;4.47;;
71288;SDS011;59068;52.502;9.860;2023-08-01T07:08:52;4.30;;;3.90;;
71288;SDS011;59068;52.502;9.860;2023-08-01T07:11:19;4.30;;;3.63;;
71288;SDS011;59068;52.502;9.860;2023-08-01T07:13:45;4.40;;;3.70;;
71288;SDS011;59068;52.502;9.860;2023-08-01T07:16:12;4.57;;;4.13;;
71288;SDS011;59068;52.502;9.860;2023-08-01T07:18:38;5.67;;;4.97;;
71288;SDS011;59068;52.502;9.860;2023-08-01T07:21:06;5.83;;;4.80;;
71288;SDS011;59068;52.502;9.860;2023-08-01T07:23:33;6.07;;;5.10;;
71288;SDS011;59068;52.502;9.860;2023-08-01T07:26:01;5.97;;;5.10;;
71288;SDS011;59068;52.502;9.860;2023-08-01T07:28:27;5.60;;;4.87;;
71288;SDS011;59068;52.502;9.860;2023-08-01T07:30:57;6.77;;;5.87;;
71288;SDS011;59068;52.502;9.860;2023-08-01T07:33:25;7.13;;;5.40;;
71288;SDS011;59068;52.502;9.860;2023-08-01T07:35:51;6.43;;;5.83;;
71288;SDS011;59068;52.502;9.860;2023-08-01T07:38:19;6.83;;;5.83;;
71288;SDS011;59068;52.502;9.860;2023-08-01T07:40:46;7.40;;;5.93;;
71288;SDS011;59068;52.502;9.860;2023-08-01T07:43:12;7.23;;;6.07;;
71288;SDS011;59068;52.502;9.860;2023-08-01T07:45:39;8.40;;;6.07;;
71288;SDS011;59068;52.502;9.860;2023-08-01T07:48:05;10.93;;;6.33;;
71288;SDS011;59068;52.502;9.860;2023-08-01T07:50:32;7.73;;;6.93;;
71288;SDS011;59068;52.502;9.860;2023-08-01T07:52:58;8.03;;;6.17;;
71288;SDS011;59068;52.502;9.860;2023-08-01T07:55:26;6.73;;;6.13;;
71288;SDS011;59068;52.502;9.860;2023-08-01T07:57:54;10.20;;;5.97;;
71288;SDS011;59068;52.502;9.860;2023-08-01T08:00:21;6.60;;;6.00;;
71288;SDS011;59068;52.502;9.860;2023-08-01T08:02:47;7.07;;;6.03;;
71288;SDS011;59068;52.502;9.860;2023-08-01T08:05:14;7.30;;;5.87;;
71288;SDS011;59068;52.502;9.860;2023-08-01T08:07:40;7.33;;;5.50;;
71288;SDS011;59068;52.502;9.860;2023-08-01T08:10:07;7.17;;;5.90;;
71288;SDS011;59068;52.502;9.860;2023-08-01T08:12:35;9.07;;;6.00;;
71288;SDS011;59068;52.502;9.860;2023-08-01T08:15:02;8.50;;;6.40;;
71288;SDS011;59068;52.502;9.860;2023-08-01T08:17:29;8.50;;;6.50;;
71288;SDS011;59068;52.502;9.860;2023-08-01T08:19:56;6.90;;;6.20;;
71288;SDS011;59068;52.502;9.860;2023-08-01T08:22:22;9.43;;;6.37;;
71288;SDS011;59068;52.502;9.860;2023-08-01T08:24:49;10.17;;;6.50;;
71288;SDS011;59068;52.502;9.860;2023-08-01T08:27:15;8.57;;;6.40;;
71288;SDS011;59068;52.502;9.860;2023-08-01T08:29:43;8.10;;;6.30;;
71288;SDS011;59068;52.502;9.860;2023-08-01T08:32:10;6.90;;;6.20;;
71288;SDS011;59068;52.502;9.860;2023-08-01T08:34:37;8.23;;;6.03;;
71288;SDS011;59068;52.502;9.860;2023-08-01T08:37:04;6.63;;;6.00;;
71288;SDS011;59068;52.502;9.860;2023-08-01T08:39:31;8.50;;;6.87;;
71288;SDS011;59068;52.502;9.860;2023-08-01T08:41:58;8.83;;;6.67;;
71288;SDS011;59068;52.502;9.860;2023-08-01T08:44:25;6.40;;;5.40;;
71288;SDS011;59068;52.502;9.860;2023-08-01T08:46:57;5.97;;;5.33;;
71288;SDS011;59068;52.502;9.860;2023-08-01T08:49:29;6.73;;;5.27;;
71288;SDS011;59068;52.502;9.860;2023-08-01T08:51:58;6.23;;;4.03;;
71288;SDS011;59068;52.502;9.860;2023-08-01T08:54:24;3.20;;;2.90;;
71288;SDS011;59068;52.502;9.860;2023-08-01T08:56:52;3.37;;;2.70;;
71288;SDS011;59068;52.502;9.860;2023-08-01T08:59:19;3.63;;;3.33;;
71288;SDS011;59068;52.502;9.860;2023-08-01T09:01:45;5.70;;;3.00;;
71288;SDS011;59068;52.502;9.860;2023-08-01T09:04:13;3.20;;;2.50;;
71288;SDS011;59068;52.502;9.860;2023-08-01T09:06:42;3.60;;;2.53;;
71288;SDS011;59068;52.502;9.860;2023-08-01T09:09:12;5.47;;;3.47;;
71288;SDS011;59068;52.502;9.860;2023-08-01T09:11:41;4.83;;;3.00;;
71288;SDS011;59068;52.502;9.860;2023-08-01T09:14:09;4.67;;;2.87;;
71288;SDS011;59068;52.502;9.860;2023-08-01T09:16:36;3.33;;;2.57;;
71288;SDS011;59068;52.502;9.860;2023-08-01T09:19:05;2.47;;;2.27;;
71288;SDS011;59068;52.502;9.860;2023-08-01T09:21:33;4.20;;;3.20;;
71288;SDS011;59068;52.502;9.860;2023-08-01T09:24:07;2.60;;;2.40;;
71288;SDS011;59068;52.502;9.860;2023-08-01T09:26:35;2.87;;;2.23;;
71288;SDS011;59068;52.502;9.860;2023-08-01T09:29:01;3.70;;;2.50;;
71288;SDS011;59068;52.502;9.860;2023-08-01T09:31:28;3.43;;;2.40;;
71288;SDS011;59068;52.502;9.860;2023-08-01T09:33:56;2.87;;;2.40;;
71288;SDS011;59068;52.502;9.860;2023-08-01T09:36:23;3.57;;;2.80;;
71288;SDS011;59068;52.502;9.860;2023-08-01T09:38:57;2.90;;;2.30;;
71288;SDS011;59068;52.502;9.860;2023-08-01T09:41:24;4.40;;;2.53;;
71288;SDS011;59068;52.502;9.860;2023-08-01T09:43:50;3.70;;;2.60;;
71288;SDS011;59068;52.502;9.860;2023-08-01T09:46:17;4.00;;;2.60;;
71288;SDS011;59068;52.502;9.860;2023-08-01T09:48:44;3.03;;;2.10;;
71288;SDS011;59068;52.502;9.860;2023-08-01T09:51:11;5.17;;;2.20;;
71288;SDS011;59068;52.502;9.860;2023-08-01T09:53:46;3.43;;;2.63;;
71288;SDS011;59068;52.502;9.860;2023-08-01T09:56:15;4.33;;;2.47;;
71288;SDS011;59068;52.502;9.860;2023-08-01T09:58:45;3.33;;;2.37;;
71288;SDS011;59068;52.502;9.860;2023-08-01T10:01:12;3.07;;;2.10;;
71288;SDS011;59068;52.502;9.860;2023-08-01T10:03:39;3.47;;;1.80;;
71288;SDS011;59068;52.502;9.860;2023-08-01T10:06:10;3.50;;;1.97;;
71288;SDS011;59068;52.502;9.860;2023-08-01T10:08:37;2.23;;;1.97;;
71288;SDS011;59068;52.502;9.860;2023-08-01T10:11:05;2.20;;;1.90;;
71288;SDS011;59068;52.502;9.860;2023-08-01T10:13:33;2.50;;;1.97;;
71288;SDS011;59068;52.502;9.860;2023-08-01T10:16:00;3.00;;;1.77;;
71288;SDS011;59068;52.502;9.860;2023-08-01T10:18:26;2.43;;;1.63;;
71288;SDS011;59068;52.502;9.860;2023-08-01T10:20:55;2.80;;;1.90;;
71288;SDS011;59068;52.502;9.860;2023-08-01T10:23:21;2.97;;;1.83;;
71288;SDS011;59068;52.502;9.860;2023-08-01T10:25:49;2.23;;;1.73;;
71288;SDS011;59068;52.502;9.860;2023-08-01T10:28:15;1.50;;;1.30;;
71288;SDS011;59068;52.502;9.860;2023-08-01T10:30:43;2.73;;;1.50;;
71288;SDS011;59068;52.502;9.860;2023-08-01T10:33:10;1.53;;;1.43;;
71288;SDS011;59068;52.502;9.860;2023-08-01T10:35:38;1.20;;;1.10;;
71288;SDS011;59068;52.502;9.860;2023-08-01T10:38:06;1.50;;;1.30;;
71288;SDS011;59068;52.502;9.860;2023-08-01T10:40:34;2.30;;;1.10;;
71288;SDS011;59068;52.502;9.860;2023-08-01T10:43:02;1.20;;;1.10;;
71288;SDS011;59068;52.502;9.860;2023-08-01T10:45:28;2.47;;;1.30;;
71288;SDS011;59068;52.502;9.860;2023-08-01T10:48:06;3.47;;;1.50;;
71288;SDS011;59068;52.502;9.860;2023-08-01T10:50:34;2.90;;;1.40;;
71288;SDS011;59068;52.502;9.860;2023-08-01T10:53:02;1.77;;;1.03;;
71288;SDS011;59068;52.502;9.860;2023-08-01T10:55:37;2.80;;;1.33;;
71288;SDS011;59068;52.502;9.860;2023-08-01T10:58:05;1.80;;;1.30;;
71288;SDS011;59068;52.502;9.860;2023-08-01T11:00:32;2.97;;;1.43;;
71288;SDS011;59068;52.502;9.860;2023-08-01T11:02:58;2.93;;;1.57;;
71288;SDS011;59068;52.502;9.860;2023-08-01T11:05:26;1.20;;;1.10;;
71288;SDS011;59068;52.502;9.860;2023-08-01T11:07:54;2.60;;;1.57;;
71288;SDS011;59068;52.502;9.860;2023-08-01T11:10:22;2.47;;;1.50;;
71288;SDS011;59068;52.502;9.860;2023-08-01T11:12:49;1.97;;;1.27;;
71288;SDS011;59068;52.502;9.860;2023-08-01T11:15:16;3.60;;;1.53;;
71288;SDS011;59068;52.502;9.860;2023-08-01T11:17:45;1.63;;;1.40;;
71288;SDS011;59068;52.502;9.860;2023-08-01T11:20:13;1.60;;;1.50;;
71288;SDS011;59068;52.502;9.860;2023-08-01T11:22:50;2.30;;;1.37;;
71288;SDS011;59068;52.502;9.860;2023-08-01T11:25:19;2.93;;;1.50;;
71288;SDS011;59068;52.502;9.860;2023-08-01T11:27:46;3.73;;;1.70;;
71288;SDS011;59068;52.502;9.860;2023-08-01T11:30:12;3.37;;;1.83;;
71288;SDS011;59068;52.502;9.860;2023-08-01T11:32:39;2.53;;;1.30;;
71288;SDS011;59068;52.502;9.860;2023-08-01T11:35:06;2.13;;;1.40;;
71288;SDS011;59068;52.502;9.860;2023-08-01T11:37:33;2.47;;;1.20;;
71288;SDS011;59068;52.502;9.860;2023-08-01T11:40:02;1.43;;;1.20;;
71288;SDS011;59068;52.502;9.860;2023-08-01T11:42:31;2.70;;;1.63;;
71288;SDS011;59068;52.502;9.860;2023-08-01T11:45:08;1.20;;;1.10;;
71288;SDS011;59068;52.502;9.860;2023-08-01T11:47:36;1.27;;;0.90;;
71288;SDS011;59068;52.502;9.860;2023-08-01T11:50:03;2.80;;;1.03;;
71288;SDS011;59068;52.502;9.860;2023-08-01T11:52:31;1.50;;;1.00;;
71288;SDS011;59068;52.502;9.860;2023-08-01T11:54:58;2.13;;;1.00;;
71288;SDS011;59068;52.502;9.860;2023-08-01T11:57:26;1.20;;;1.10;;
71288;SDS011;59068;52.502;9.860;2023-08-01T11:59:53;1.53;;;1.07;;
71288;SDS011;59068;52.502;9.860;2023-08-01T12:02:22;1.40;;;1.20;;
71288;SDS011;59068;52.502;9.860;2023-08-01T12:04:49;1.57;;;1.40;;
71288;SDS011;59068;52.502;9.860;2023-08-01T12:07:15;1.67;;;1.00;;
71288;SDS011;59068;52.502;9.860;2023-08-01T12:09:42;1.37;;;1.03;;
71288;SDS011;59068;52.502;9.860;2023-08-01T12:12:09;2.00;;;1.17;;
71288;SDS011;59068;52.502;9.860;2023-08-01T12:14:40;1.80;;;1.20;;
71288;SDS011;59068;52.502;9.860;2023-08-01T12:17:07;1.23;;;1.13;;
71288;SDS011;59068;52.502;9.860;2023-08-01T12:19:34;1.97;;;1.33;;
71288;SDS011;59068;52.502;9.860;2023-08-01T12:22:00;2.27;;;1.30;;
71288;SDS011;59068;52.502;9.860;2023-08-01T12:24:27;1.57;;;1.40;;
71288;SDS011;59068;52.502;9.860;2023-08-01T12:26:54;2.57;;;1.10;;
71288;SDS011;59068;52.502;9.860;2023-08-01T12:29:20;1.37;;;1.10;;
71288;SDS011;59068;52.502;9.860;2023-08-01T12:31:48;1.90;;;1.30;;
71288;SDS011;59068;52.502;9.860;2023-08-01T12:34:15;1.90;;;1.20;;
71288;SDS011;59068;52.502;9.860;2023-08-01T12:36:41;1.73;;;1.20;;
71288;SDS011;59068;52.502;9.860;2023-08-01T12:39:08;1.47;;;1.20;;
71288;SDS011;59068;52.502;9.860;2023-08-01T12:41:36;2.03;;;1.47;;
71288;SDS011;59068;52.502;9.860;2023-08-01T12:44:03;2.43;;;1.77;;
71288;SDS011;59068;52.502;9.860;2023-08-01T12:46:30;1.73;;;1.40;;
71288;SDS011;59068;52.502;9.860;2023-08-01T12:48:58;3.10;;;1.57;;
71288;SDS011;59068;52.502;9.860;2023-08-01T12:51:24;1.83;;;0.90;;
71288;SDS011;59068;52.502;9.860;2023-08-01T12:53:51;1.30;;;0.70;;
71288;SDS011;59068;52.502;9.860;2023-08-01T12:56:17;1.33;;;0.90;;
71288;SDS011;59068;52.502;9.860;2023-08-01T12:58:44;2.37;;;1.10;;
71288;SDS011;59068;52.502;9.860;2023-08-01T13:01:11;3.33;;;1.17;;
71288;SDS011;59068;52.502;9.860;2023-08-01T13:03:37;2.50;;;1.30;;
71288;SDS011;59068;52.502;9.860;2023-08-01T13:06:05;3.53;;;1.27;;
71288;SDS011;59068;52.502;9.860;2023-08-01T13:08:32;1.93;;;1.33;;
71288;SDS011;59068;52.502;9.860;2023-08-01T13:10:58;4.00;;;1.70;;
71288;SDS011;59068;52.502;9.860;2023-08-01T13:13:25;1.57;;;1.20;;
71288;SDS011;59068;52.502;9.860;2023-08-01T13:15:52;3.10;;;1.70;;
71288;SDS011;59068;52.502;9.860;2023-08-01T13:18:18;2.97;;;1.80;;
71288;SDS011;59068;52.502;9.860;2023-08-01T13:20:45;2.63;;;1.90;;
71288;SDS011;59068;52.502;9.860;2023-08-01T13:23:13;3.43;;;1.90;;
71288;SDS011;59068;52.502;9.860;2023-08-01T13:25:39;4.50;;;2.03;;
71288;SDS011;59068;52.502;9.860;2023-08-01T13:28:06;5.23;;;2.00;;
71288;SDS011;59068;52.502;9.860;2023-08-01T13:30:32;2.20;;;2.00;;
71288;SDS011;59068;52.502;9.860;2023-08-01T13:32:59;2.70;;;2.17;;
71288;SDS011;59068;52.502;9.860;2023-08-01T13:35:26;2.50;;;2.03;;
71288;SDS011;59068;52.502;9.860;2023-08-01T13:37:52;2.63;;;2.43;;
71288;SDS011;59068;52.502;9.860;2023-08-01T13:40:20;3.93;;;2.43;;
71288;SDS011;59068;52.502;9.860;2023-08-01T13:42:47;5.13;;;2.50;;
71288;SDS011;59068;52.502;9.860;2023-08-01T13:45:13;4.33;;;3.00;;
71288;SDS011;59068;52.502;9.860;2023-08-01T13:47:40;2.83;;;2.40;;
71288;SDS011;59068;52.502;9.860;2023-08-01T13:50:07;3.30;;;2.30;;
71288;SDS011;59068;52.502;9.860;2023-08-01T13:52:34;3.23;;;2.40;;
71288;SDS011;59068;52.502;9.860;2023-08-01T13:55:00;3.00;;;2.20;;
71288;SDS011;59068;52.502;9.860;2023-08-01T13:57:29;3.20;;;1.90;;
71288;SDS011;59068;52.502;9.860;2023-08-01T13:59:56;3.17;;;1.90;;
71288;SDS011;59068;52.502;9.860;2023-08-01T14:02:22;3.13;;;2.10;;
71288;SDS011;59068;52.502;9.860;2023-08-01T14:04:50;2.57;;;1.93;;
71288;SDS011;59068;52.502;9.860;2023-08-01T14:07:17;3.57;;;1.70;;
71288;SDS011;59068;52.502;9.860;2023-08-01T14:09:44;1.77;;;1.40;;
71288;SDS011;59068;52.502;9.860;2023-08-01T14:12:10;1.57;;;1.20;;
71288;SDS011;59068;52.502;9.860;2023-08-01T14:14:38;1.53;;;1.00;;
71288;SDS011;59068;52.502;9.860;2023-08-01T14:17:05;2.47;;;1.20;;
71288;SDS011;59068;52.502;9.860;2023-08-01T14:19:32;2.83;;;1.40;;
71288;SDS011;59068;52.502;9.860;2023-08-01T14:21:58;1.67;;;0.97;;
71288;SDS011;59068;52.502;9.860;2023-08-01T14:24:25;1.43;;;0.97;;
71288;SDS011;59068;52.502;9.860;2023-08-01T14:26:51;1.63;;;1.27;;
71288;SDS011;59068;52.502;9.860;2023-08-01T14:29:18;2.30;;;1.17;;
71288;SDS011;59068;52.502;9.860;2023-08-01T14:31:48;1.33;;;0.93;;
71288;SDS011;59068;52.502;9.860;2023-08-01T14:34:16;2.07;;;1.10;;
71288;SDS011;59068;52.502;9.860;2023-08-01T14:36:42;0.90;;;0.90;;
71288;SDS011;59068;52.502;9.860;2023-08-01T14:39:09;0.90;;;0.80;;
71288;SDS011;59068;52.502;9.860;2023-08-01T14:41:36;1.30;;;1.10;;
71288;SDS011;59068;52.502;9.860;2023-08-01T14:44:02;1.33;;;0.80;;
71288;SDS011;59068;52.502;9.860;2023-08-01T14:46:29;1.63;;;1.40;;